PWSweather.com
Personal Weather Stations
Station Observations
SONYA
Sergiev PosadRU

Sergiev PosadRU

Lat: 56.28148651, Lon: 38.05462646

Elevation: 741

Station Type: Fine offset WH1091

Latest ConditionsUpdated 8:05:00 PM GMT+03:03 Monday, Jan 21, 2019
Currently Today's Max Today's Min Today's Average
Temperature 7.7°F-13.5°C 23.4°F-4.8°C 7.7°F-13.5°C 17.1°F-8.3°C
Dew Point 1.1°F-17.2°C 18.5°F-7.5°C 0.9°F-17.3°C 9.3°F-12.6°C
Winds 0.7 mph SW1.1 kmh SW 11.4 mph -18.3 kmh - - 3.6 mph 5.8 kmh
Wind Gusts 2.2 mph3.5 kmh 17.4 mph28.0 kmh - -
Humidity 63% 75% 44% 61%
Pressure 29.02 in982.7 mb 29.02 in982.7 mb 28.94 in980.0 mb -
Hour Temp Dew Point Humidity Winds Wind Gusts Pressure Precip Precip Rate Daily Precip Total
08:05 PM 7.7°F-13.5°C 1.1°F-17.2°C 63% 0.7 mph SW1.1 kmh SW 2.2 mph3.5 kmh 29.02 in982.7 mb 0.00 in0.0 mm 0.00 in0.0 mm 0.00 in0.0 mm
07:59 PM 7.7°F-13.5°C 1.1°F-17.2°C 63% 2.2 mph SW3.5 kmh SW 3.8 mph6.1 kmh 29.02 in982.7 mb 0.00 in0.0 mm 0.00 in0.0 mm 0.00 in0.0 mm
07:54 PM 7.7°F-13.5°C 1.1°F-17.2°C 63% 2.2 mph SW3.5 kmh SW 3.1 mph5.0 kmh 29.02 in982.7 mb 0.00 in0.0 mm 0.00 in0.0 mm 0.00 in0.0 mm
07:49 PM 7.7°F-13.5°C 1.1°F-17.2°C 63% 1.6 mph SW2.6 kmh SW 2.2 mph3.5 kmh 29.02 in982.7 mb 0.00 in0.0 mm 0.00 in0.0 mm 0.00 in0.0 mm
07:43 PM 7.7°F-13.5°C 1.1°F-17.2°C 63% 1.6 mph SW2.6 kmh SW 3.1 mph5.0 kmh 29.01 in982.4 mb 0.00 in0.0 mm 0.00 in0.0 mm 0.00 in0.0 mm
07:42 PM 7.7°F-13.5°C 0.9°F-17.3°C 62% 0.7 mph SW1.1 kmh SW 1.6 mph2.6 kmh 29.02 in982.7 mb 0.00 in0.0 mm 0.00 in0.0 mm 0.00 in0.0 mm
07:38 PM 7.7°F-13.5°C 0.9°F-17.3°C 62% 3.1 mph SSW5.0 kmh SSW 4.5 mph7.2 kmh 29.02 in982.7 mb 0.00 in0.0 mm 0.00 in0.0 mm 0.00 in0.0 mm
07:37 PM 7.7°F-13.5°C 0.9°F-17.3°C 62% 1.6 mph S2.6 kmh S 3.1 mph5.0 kmh 29.02 in982.7 mb 0.00 in0.0 mm 0.00 in0.0 mm 0.00 in0.0 mm
07:34 PM 7.9°F-13.4°C 1.1°F-17.2°C 62% Calm Calm 1.6 mph2.6 kmh 29.02 in982.7 mb 0.00 in0.0 mm 0.00 in0.0 mm 0.00 in0.0 mm
07:33 PM 7.9°F-13.4°C 1.1°F-17.2°C 62% 2.2 mph SW3.5 kmh SW 3.8 mph6.1 kmh 29.02 in982.7 mb 0.00 in0.0 mm 0.00 in0.0 mm 0.00 in0.0 mm
07:28 PM 7.9°F-13.4°C 1.1°F-17.2°C 62% 1.6 mph S2.6 kmh S 2.2 mph3.5 kmh 29.02 in982.7 mb 0.00 in0.0 mm 0.00 in0.0 mm 0.00 in0.0 mm
07:26 PM 7.9°F-13.4°C 1.1°F-17.2°C 62% 1.6 mph SW2.6 kmh SW 3.1 mph5.0 kmh 29.02 in982.7 mb 0.00 in0.0 mm 0.00 in0.0 mm 0.00 in0.0 mm
07:21 PM 7.9°F-13.4°C 1.1°F-17.2°C 62% 2.2 mph SW3.5 kmh SW 3.1 mph5.0 kmh 29.02 in982.7 mb 0.00 in0.0 mm 0.00 in0.0 mm 0.00 in0.0 mm
07:18 PM 7.9°F-13.4°C 1.1°F-17.2°C 62% 1.6 mph S2.6 kmh S 2.2 mph3.5 kmh 29.02 in982.7 mb 0.00 in0.0 mm 0.00 in0.0 mm 0.00 in0.0 mm
07:16 PM 7.9°F-13.4°C 1.1°F-17.2°C 62% 1.6 mph S2.6 kmh S 3.1 mph5.0 kmh 29.02 in982.7 mb 0.00 in0.0 mm 0.00 in0.0 mm 0.00 in0.0 mm
07:12 PM 8.1°F-13.3°C 1.2°F-17.1°C 62% 1.6 mph SW2.6 kmh SW 2.2 mph3.5 kmh 29.01 in982.4 mb 0.00 in0.0 mm 0.00 in0.0 mm 0.00 in0.0 mm
07:10 PM 8.1°F-13.3°C 1.2°F-17.1°C 62% 0.7 mph SW1.1 kmh SW 2.2 mph3.5 kmh 29.02 in982.7 mb 0.00 in0.0 mm 0.00 in0.0 mm 0.00 in0.0 mm
07:05 PM 8.1°F-13.3°C 1.2°F-17.1°C 62% 0.7 mph SW1.1 kmh SW 2.2 mph3.5 kmh 29.02 in982.7 mb 0.00 in0.0 mm 0.00 in0.0 mm 0.00 in0.0 mm
07:01 PM 8.4°F-13.1°C 1.3°F-17.1°C 61% 0.7 mph SW1.1 kmh SW 2.2 mph3.5 kmh 29.02 in982.7 mb 0.00 in0.0 mm 0.00 in0.0 mm 0.00 in0.0 mm
07:00 PM 8.2°F-13.2°C 1.2°F-17.1°C 61% Calm Calm -- 29.01 in982.4 mb 0.00 in0.0 mm 0.00 in0.0 mm 0.00 in0.0 mm
06:55 PM 8.4°F-13.1°C 1.3°F-17.1°C 61% 0.7 mph SW1.1 kmh SW 2.2 mph3.5 kmh 29.02 in982.7 mb 0.00 in0.0 mm 0.00 in0.0 mm 0.00 in0.0 mm
06:50 PM 8.6°F-13.0°C 1.3°F-17.1°C 60% 2.2 mph S3.5 kmh S 3.1 mph5.0 kmh 29.02 in982.7 mb 0.00 in0.0 mm 0.00 in0.0 mm 0.00 in0.0 mm
06:49 PM 8.8°F-12.9°C 1.4°F-17.0°C 60% 3.1 mph SW5.0 kmh SW 3.8 mph6.1 kmh 29.02 in982.7 mb 0.00 in0.0 mm 0.00 in0.0 mm 0.00 in0.0 mm
06:45 PM 9.0°F-12.8°C 1.6°F-16.9°C 60% 1.6 mph SW2.6 kmh SW 3.1 mph5.0 kmh 29.02 in982.7 mb 0.00 in0.0 mm 0.00 in0.0 mm 0.00 in0.0 mm
06:44 PM 8.8°F-12.9°C 1.4°F-17.0°C 60% 0.7 mph SW1.1 kmh SW 2.2 mph3.5 kmh 29.01 in982.4 mb 0.00 in0.0 mm 0.00 in0.0 mm 0.00 in0.0 mm
06:39 PM 8.8°F-12.9°C 1.4°F-17.0°C 60% 3.8 mph SW6.1 kmh SW 5.4 mph8.7 kmh 29.01 in982.4 mb 0.00 in0.0 mm 0.00 in0.0 mm 0.00 in0.0 mm
06:34 PM 8.8°F-12.9°C 1.4°F-17.0°C 60% 2.2 mph S3.5 kmh S 5.4 mph8.7 kmh 29.01 in982.4 mb 0.00 in0.0 mm 0.00 in0.0 mm 0.00 in0.0 mm
06:29 PM 9.0°F-12.8°C 1.6°F-16.9°C 60% 0.7 mph SW1.1 kmh SW 2.2 mph3.5 kmh 29.01 in982.4 mb 0.00 in0.0 mm 0.00 in0.0 mm 0.00 in0.0 mm
06:23 PM 9.1°F-12.7°C 1.8°F-16.8°C 60% 1.6 mph S2.6 kmh S 2.2 mph3.5 kmh 29.01 in982.4 mb 0.00 in0.0 mm 0.00 in0.0 mm 0.00 in0.0 mm
06:22 PM 9.1°F-12.7°C 1.8°F-16.8°C 60% 1.6 mph SW2.6 kmh SW 3.1 mph5.0 kmh 29.01 in982.4 mb 0.00 in0.0 mm 0.00 in0.0 mm 0.00 in0.0 mm
06:18 PM 9.3°F-12.6°C 2.0°F-16.7°C 60% 0.7 mph SW1.1 kmh SW 1.6 mph2.6 kmh 29.01 in982.4 mb 0.00 in0.0 mm 0.00 in0.0 mm 0.00 in0.0 mm
06:17 PM 9.1°F-12.7°C 1.5°F-16.9°C 59% 0.7 mph SW1.1 kmh SW 2.2 mph3.5 kmh 29.01 in982.4 mb 0.00 in0.0 mm 0.00 in0.0 mm 0.00 in0.0 mm
06:13 PM 9.3°F-12.6°C 2.0°F-16.7°C 60% 1.6 mph SW2.6 kmh SW 2.2 mph3.5 kmh 29.01 in982.4 mb 0.00 in0.0 mm 0.00 in0.0 mm 0.00 in0.0 mm
06:08 PM 9.3°F-12.6°C 2.0°F-16.7°C 60% 1.6 mph SSW2.6 kmh SSW 2.2 mph3.5 kmh 29.01 in982.4 mb 0.00 in0.0 mm 0.00 in0.0 mm 0.00 in0.0 mm
06:07 PM 9.5°F-12.5°C 2.1°F-16.6°C 60% 0.7 mph SW1.1 kmh SW 2.2 mph3.5 kmh 29.00 in982.1 mb 0.00 in0.0 mm 0.00 in0.0 mm 0.00 in0.0 mm
06:02 PM 9.5°F-12.5°C 2.1°F-16.6°C 60% 1.6 mph SW2.6 kmh SW 3.1 mph5.0 kmh 29.01 in982.4 mb 0.00 in0.0 mm 0.00 in0.0 mm 0.00 in0.0 mm
05:58 PM 9.7°F-12.4°C 2.3°F-16.5°C 60% 0.7 mph S1.1 kmh S 2.2 mph3.5 kmh 29.01 in982.4 mb 0.00 in0.0 mm 0.00 in0.0 mm 0.00 in0.0 mm
05:57 PM 9.7°F-12.4°C 2.3°F-16.5°C 60% 1.6 mph SW2.6 kmh SW 2.2 mph3.5 kmh 29.01 in982.4 mb 0.00 in0.0 mm 0.00 in0.0 mm 0.00 in0.0 mm
05:53 PM 9.9°F-12.3°C 2.5°F-16.4°C 60% 1.6 mph S2.6 kmh S 2.2 mph3.5 kmh 29.01 in982.4 mb 0.00 in0.0 mm 0.00 in0.0 mm 0.00 in0.0 mm
05:48 PM 10.0°F-12.2°C 2.6°F-16.3°C 60% 2.2 mph S3.5 kmh S 3.8 mph6.1 kmh 29.00 in982.1 mb 0.00 in0.0 mm 0.00 in0.0 mm 0.00 in0.0 mm
05:47 PM 10.0°F-12.2°C 2.6°F-16.3°C 60% 1.6 mph SW2.6 kmh SW 3.1 mph5.0 kmh 29.01 in982.4 mb 0.00 in0.0 mm 0.00 in0.0 mm 0.00 in0.0 mm
05:42 PM 10.0°F-12.2°C 2.6°F-16.3°C 60% 2.2 mph SW3.5 kmh SW 3.1 mph5.0 kmh 29.01 in982.4 mb 0.00 in0.0 mm 0.00 in0.0 mm 0.00 in0.0 mm
05:38 PM 10.0°F-12.2°C 2.6°F-16.3°C 60% 1.6 mph S2.6 kmh S 2.2 mph3.5 kmh 29.01 in982.4 mb 0.00 in0.0 mm 0.00 in0.0 mm 0.00 in0.0 mm
05:37 PM 10.0°F-12.2°C 2.6°F-16.3°C 60% 1.6 mph SW2.6 kmh SW 2.2 mph3.5 kmh 29.00 in982.1 mb 0.00 in0.0 mm 0.00 in0.0 mm 0.00 in0.0 mm
05:33 PM 10.2°F-12.1°C 2.6°F-16.3°C 59% 1.6 mph SW2.6 kmh SW 2.2 mph3.5 kmh 29.00 in982.1 mb 0.00 in0.0 mm 0.00 in0.0 mm 0.00 in0.0 mm
05:28 PM 10.2°F-12.1°C 2.6°F-16.3°C 59% 2.2 mph SW3.5 kmh SW 4.5 mph7.2 kmh 29.00 in982.1 mb 0.00 in0.0 mm 0.00 in0.0 mm 0.00 in0.0 mm
05:27 PM 10.4°F-12.0°C 3.7°F-15.7°C 63% 0.7 mph S1.1 kmh S 2.2 mph3.5 kmh 29.00 in982.1 mb 0.00 in0.0 mm 0.00 in0.0 mm 0.00 in0.0 mm
05:22 PM 10.6°F-11.9°C 3.8°F-15.7°C 63% 1.6 mph SW2.6 kmh SW 2.2 mph3.5 kmh 29.00 in982.1 mb 0.00 in0.0 mm 0.00 in0.0 mm 0.00 in0.0 mm
05:18 PM 10.9°F-11.7°C 4.2°F-15.4°C 63% 1.6 mph S2.6 kmh S 2.2 mph3.5 kmh 29.00 in982.1 mb 0.00 in0.0 mm 0.00 in0.0 mm 0.00 in0.0 mm
05:17 PM 10.8°F-11.8°C 4.0°F-15.6°C 63% 1.6 mph S2.6 kmh S 2.2 mph3.5 kmh 29.00 in982.1 mb 0.00 in0.0 mm 0.00 in0.0 mm 0.00 in0.0 mm
05:13 PM 11.1°F-11.6°C 4.3°F-15.4°C 63% 0.7 mph S1.1 kmh S 2.2 mph3.5 kmh 29.01 in982.4 mb 0.00 in0.0 mm 0.00 in0.0 mm 0.00 in0.0 mm
05:08 PM 11.3°F-11.5°C 4.5°F-15.3°C 63% 0.7 mph S1.1 kmh S 1.6 mph2.6 kmh 29.00 in982.1 mb 0.00 in0.0 mm 0.00 in0.0 mm 0.00 in0.0 mm
05:07 PM 11.3°F-11.5°C 4.5°F-15.3°C 63% 1.6 mph S2.6 kmh S 2.2 mph3.5 kmh 29.00 in982.1 mb 0.00 in0.0 mm 0.00 in0.0 mm 0.00 in0.0 mm
05:02 PM 11.7°F-11.3°C 4.6°F-15.2°C 62% 1.6 mph SW2.6 kmh SW 2.2 mph3.5 kmh 29.00 in982.1 mb 0.00 in0.0 mm 0.00 in0.0 mm 0.00 in0.0 mm
04:58 PM 11.8°F-11.2°C 4.8°F-15.1°C 62% 2.2 mph S3.5 kmh S 3.1 mph5.0 kmh 29.00 in982.1 mb 0.00 in0.0 mm 0.00 in0.0 mm 0.00 in0.0 mm
04:57 PM 11.8°F-11.2°C 4.8°F-15.1°C 62% 1.6 mph S2.6 kmh S 2.2 mph3.5 kmh 29.00 in982.1 mb 0.00 in0.0 mm 0.00 in0.0 mm 0.00 in0.0 mm
04:53 PM 12.0°F-11.1°C 5.0°F-15.0°C 62% 2.2 mph SW3.5 kmh SW 3.8 mph6.1 kmh 28.99 in981.7 mb 0.00 in0.0 mm 0.00 in0.0 mm 0.00 in0.0 mm
04:48 PM 12.4°F-10.9°C 5.1°F-14.9°C 61% 1.6 mph SSW2.6 kmh SSW 3.1 mph5.0 kmh 28.99 in981.7 mb 0.00 in0.0 mm 0.00 in0.0 mm 0.00 in0.0 mm
04:47 PM 12.4°F-10.9°C 5.1°F-14.9°C 61% 1.6 mph SW2.6 kmh SW 3.1 mph5.0 kmh 29.00 in982.1 mb 0.00 in0.0 mm 0.00 in0.0 mm 0.00 in0.0 mm
04:42 PM 12.6°F-10.8°C 5.2°F-14.9°C 61% 1.6 mph SSW2.6 kmh SSW 2.2 mph3.5 kmh 28.99 in981.7 mb 0.00 in0.0 mm 0.00 in0.0 mm 0.00 in0.0 mm
04:38 PM 12.9°F-10.6°C 5.6°F-14.7°C 61% 1.6 mph SW2.6 kmh SW 2.2 mph3.5 kmh 28.99 in981.7 mb 0.00 in0.0 mm 0.00 in0.0 mm 0.00 in0.0 mm
04:37 PM 12.9°F-10.6°C 5.6°F-14.7°C 61% 1.6 mph SW2.6 kmh SW 2.2 mph3.5 kmh 28.99 in981.7 mb 0.00 in0.0 mm 0.00 in0.0 mm 0.00 in0.0 mm
04:33 PM 13.1°F-10.5°C 5.7°F-14.6°C 61% 3.8 mph S6.1 kmh S 5.4 mph8.7 kmh 28.99 in981.7 mb 0.00 in0.0 mm 0.00 in0.0 mm 0.00 in0.0 mm
04:28 PM 13.3°F-10.4°C 5.9°F-14.5°C 61% 4.5 mph S7.2 kmh S 6.0 mph9.7 kmh 28.99 in981.7 mb 0.00 in0.0 mm 0.00 in0.0 mm 0.00 in0.0 mm
04:27 PM 13.5°F-10.3°C 5.8°F-14.6°C 60% 2.2 mph S3.5 kmh S 3.8 mph6.1 kmh 29.00 in982.1 mb 0.00 in0.0 mm 0.00 in0.0 mm 0.00 in0.0 mm
04:22 PM 13.6°F-10.2°C 6.0°F-14.4°C 60% 2.2 mph SW3.5 kmh SW 3.8 mph6.1 kmh 28.99 in981.7 mb 0.00 in0.0 mm 0.00 in0.0 mm 0.00 in0.0 mm
04:18 PM 13.8°F-10.1°C 5.9°F-14.5°C 59% 0.7 mph SW1.1 kmh SW 3.8 mph6.1 kmh 28.99 in981.7 mb 0.00 in0.0 mm 0.00 in0.0 mm 0.00 in0.0 mm
04:17 PM 13.8°F-10.1°C 6.2°F-14.3°C 60% 3.1 mph SW5.0 kmh SW 3.8 mph6.1 kmh 28.98 in981.4 mb 0.00 in0.0 mm 0.00 in0.0 mm 0.00 in0.0 mm
04:13 PM 14.0°F-10.0°C 5.9°F-14.5°C 58% 3.8 mph S6.1 kmh S 5.4 mph8.7 kmh 28.99 in981.7 mb 0.00 in0.0 mm 0.00 in0.0 mm 0.00 in0.0 mm
04:08 PM 14.2°F-9.9°C 5.8°F-14.6°C 57% 0.7 mph S1.1 kmh S 2.2 mph3.5 kmh 28.98 in981.4 mb 0.00 in0.0 mm 0.00 in0.0 mm 0.00 in0.0 mm
04:07 PM 14.2°F-9.9°C 5.8°F-14.6°C 57% 2.2 mph SW3.5 kmh SW 5.4 mph8.7 kmh 28.99 in981.7 mb 0.00 in0.0 mm 0.00 in0.0 mm 0.00 in0.0 mm
04:02 PM 14.2°F-9.9°C 5.5°F-14.7°C 56% 1.6 mph SW2.6 kmh SW 2.2 mph3.5 kmh 28.99 in981.7 mb 0.00 in0.0 mm 0.00 in0.0 mm 0.00 in0.0 mm
03:58 PM 14.7°F-9.6°C 5.8°F-14.6°C 55% 2.2 mph S3.5 kmh S 4.5 mph7.2 kmh 28.99 in981.7 mb 0.00 in0.0 mm 0.00 in0.0 mm 0.00 in0.0 mm
03:57 PM 14.5°F-9.7°C 5.6°F-14.7°C 55% 6.0 mph SW9.7 kmh SW 7.6 mph12.2 kmh 28.98 in981.4 mb 0.00 in0.0 mm 0.00 in0.0 mm 0.00 in0.0 mm
03:53 PM 14.9°F-9.5°C 5.7°F-14.6°C 54% 1.6 mph SW2.6 kmh SW 3.1 mph5.0 kmh 28.99 in981.7 mb 0.00 in0.0 mm 0.00 in0.0 mm 0.00 in0.0 mm
03:48 PM 15.1°F-9.4°C 5.8°F-14.6°C 54% 2.2 mph NW3.5 kmh NW 3.1 mph5.0 kmh 28.98 in981.4 mb 0.00 in0.0 mm 0.00 in0.0 mm 0.00 in0.0 mm
03:47 PM 15.1°F-9.4°C 5.6°F-14.7°C 53% 0.7 mph S1.1 kmh S 2.2 mph3.5 kmh 28.99 in981.7 mb 0.00 in0.0 mm 0.00 in0.0 mm 0.00 in0.0 mm
03:42 PM 15.3°F-9.3°C 5.7°F-14.6°C 53% 3.1 mph SW5.0 kmh SW 5.4 mph8.7 kmh 28.99 in981.7 mb 0.00 in0.0 mm 0.00 in0.0 mm 0.00 in0.0 mm
03:38 PM 15.6°F-9.1°C 5.5°F-14.7°C 51% 11.4 mph S18.3 kmh S 13.6 mph21.9 kmh 28.99 in981.7 mb 0.00 in0.0 mm 0.00 in0.0 mm 0.00 in0.0 mm
03:37 PM 15.4°F-9.2°C 5.6°F-14.7°C 52% 2.2 mph SE3.5 kmh SE 3.8 mph6.1 kmh 28.99 in981.7 mb 0.00 in0.0 mm 0.00 in0.0 mm 0.00 in0.0 mm
03:33 PM 15.8°F-9.0°C 5.4°F-14.8°C 50% 2.2 mph SW3.5 kmh SW 4.5 mph7.2 kmh 28.98 in981.4 mb 0.00 in0.0 mm 0.00 in0.0 mm 0.00 in0.0 mm
03:28 PM 16.2°F-8.8°C 5.7°F-14.6°C 50% 2.2 mph NE3.5 kmh NE 3.8 mph6.1 kmh 28.99 in981.7 mb 0.00 in0.0 mm 0.00 in0.0 mm 0.00 in0.0 mm
03:27 PM 16.3°F-8.7°C 5.9°F-14.5°C 50% 2.2 mph S3.5 kmh S 6.0 mph9.7 kmh 28.98 in981.4 mb 0.00 in0.0 mm 0.00 in0.0 mm 0.00 in0.0 mm
03:22 PM 16.3°F-8.7°C 5.9°F-14.5°C 50% 3.1 mph S5.0 kmh S 7.6 mph12.2 kmh 28.98 in981.4 mb 0.00 in0.0 mm 0.00 in0.0 mm 0.00 in0.0 mm
03:18 PM 15.6°F-9.1°C 5.5°F-14.7°C 51% 3.8 mph S6.1 kmh S 4.5 mph7.2 kmh 28.98 in981.4 mb 0.00 in0.0 mm 0.00 in0.0 mm 0.00 in0.0 mm
03:17 PM 15.8°F-9.0°C 5.4°F-14.8°C 50% 3.1 mph SE5.0 kmh SE 3.8 mph6.1 kmh 28.98 in981.4 mb 0.00 in0.0 mm 0.00 in0.0 mm 0.00 in0.0 mm
03:13 PM 15.4°F-9.2°C 5.3°F-14.8°C 51% 8.3 mph S13.4 kmh S 13.6 mph21.9 kmh 28.98 in981.4 mb 0.00 in0.0 mm 0.00 in0.0 mm 0.00 in0.0 mm
03:08 PM 15.6°F-9.1°C 5.2°F-14.9°C 50% 4.5 mph SW7.2 kmh SW 9.2 mph14.8 kmh 28.98 in981.4 mb 0.00 in0.0 mm 0.00 in0.0 mm 0.00 in0.0 mm
03:07 PM 15.6°F-9.1°C 5.2°F-14.9°C 50% 3.8 mph W6.1 kmh W 4.5 mph7.2 kmh 28.98 in981.4 mb 0.00 in0.0 mm 0.00 in0.0 mm 0.00 in0.0 mm
03:02 PM 15.6°F-9.1°C 5.2°F-14.9°C 50% 3.1 mph SW5.0 kmh SW 4.5 mph7.2 kmh 28.97 in981.0 mb 0.00 in0.0 mm 0.00 in0.0 mm 0.00 in0.0 mm
02:58 PM 15.8°F-9.0°C 5.1°F-14.9°C 49% 5.4 mph SW8.7 kmh SW 7.6 mph12.2 kmh 28.98 in981.4 mb 0.00 in0.0 mm 0.00 in0.0 mm 0.00 in0.0 mm
02:57 PM 15.8°F-9.0°C 5.1°F-14.9°C 49% 3.8 mph SW6.1 kmh SW 6.9 mph11.1 kmh 28.98 in981.4 mb 0.00 in0.0 mm 0.00 in0.0 mm 0.00 in0.0 mm
02:53 PM 16.2°F-8.8°C 5.4°F-14.8°C 49% 7.6 mph S12.2 kmh S 9.8 mph15.8 kmh 28.98 in981.4 mb 0.00 in0.0 mm 0.00 in0.0 mm 0.00 in0.0 mm
02:48 PM 16.3°F-8.7°C 5.3°F-14.8°C 48% 3.8 mph S6.1 kmh S 8.3 mph13.4 kmh 28.97 in981.0 mb 0.00 in0.0 mm 0.00 in0.0 mm 0.00 in0.0 mm
02:47 PM 16.5°F-8.6°C 5.5°F-14.7°C 48% 3.1 mph S5.0 kmh S 7.6 mph12.2 kmh 28.98 in981.4 mb 0.00 in0.0 mm 0.00 in0.0 mm 0.00 in0.0 mm
02:42 PM 16.9°F-8.4°C 6.1°F-14.4°C 49% 3.1 mph SW5.0 kmh SW 4.5 mph7.2 kmh 28.98 in981.4 mb 0.00 in0.0 mm 0.00 in0.0 mm 0.00 in0.0 mm
02:38 PM 16.3°F-8.7°C 5.6°F-14.7°C 49% 3.1 mph SE5.0 kmh SE 5.4 mph8.7 kmh 28.98 in981.4 mb 0.00 in0.0 mm 0.00 in0.0 mm 0.00 in0.0 mm
02:37 PM 16.7°F-8.5°C 5.9°F-14.5°C 49% 3.1 mph SW5.0 kmh SW 6.0 mph9.7 kmh 28.98 in981.4 mb 0.00 in0.0 mm 0.00 in0.0 mm 0.00 in0.0 mm
02:33 PM 16.3°F-8.7°C 5.6°F-14.7°C 49% 2.2 mph SW3.5 kmh SW 3.1 mph5.0 kmh 28.98 in981.4 mb 0.00 in0.0 mm 0.00 in0.0 mm 0.00 in0.0 mm
02:28 PM 16.3°F-8.7°C 5.3°F-14.8°C 48% 3.1 mph SW5.0 kmh SW 6.0 mph9.7 kmh 28.98 in981.4 mb 0.00 in0.0 mm 0.00 in0.0 mm 0.00 in0.0 mm
02:27 PM 16.3°F-8.7°C 5.3°F-14.8°C 48% 6.9 mph SW11.1 kmh SW 12.1 mph19.5 kmh 28.98 in981.4 mb 0.00 in0.0 mm 0.00 in0.0 mm 0.00 in0.0 mm
02:22 PM 16.2°F-8.8°C 5.1°F-14.9°C 48% 4.5 mph SW7.2 kmh SW 6.9 mph11.1 kmh 28.98 in981.4 mb 0.00 in0.0 mm 0.00 in0.0 mm 0.00 in0.0 mm
02:18 PM 16.3°F-8.7°C 5.3°F-14.8°C 48% 2.2 mph SE3.5 kmh SE 3.1 mph5.0 kmh 28.98 in981.4 mb 0.00 in0.0 mm 0.00 in0.0 mm 0.00 in0.0 mm
02:17 PM 16.3°F-8.7°C 5.3°F-14.8°C 48% 4.5 mph SW7.2 kmh SW 6.9 mph11.1 kmh 28.98 in981.4 mb 0.00 in0.0 mm 0.00 in0.0 mm 0.00 in0.0 mm
02:13 PM 16.2°F-8.8°C 4.8°F-15.1°C 47% 3.8 mph SW6.1 kmh SW 9.8 mph15.8 kmh 28.98 in981.4 mb 0.00 in0.0 mm 0.00 in0.0 mm 0.00 in0.0 mm
02:08 PM 16.2°F-8.8°C 4.8°F-15.1°C 47% 1.6 mph 2.6 kmh 3.1 mph5.0 kmh 28.98 in981.4 mb 0.00 in0.0 mm 0.00 in0.0 mm 0.00 in0.0 mm
02:07 PM 16.2°F-8.8°C 4.5°F-15.3°C 46% 4.5 mph SW7.2 kmh SW 9.8 mph15.8 kmh 28.98 in981.4 mb 0.00 in0.0 mm 0.00 in0.0 mm 0.00 in0.0 mm
02:02 PM 16.2°F-8.8°C 4.5°F-15.3°C 46% 3.8 mph SW6.1 kmh SW 6.9 mph11.1 kmh 28.98 in981.4 mb 0.00 in0.0 mm 0.00 in0.0 mm 0.00 in0.0 mm
01:58 PM 16.5°F-8.6°C 4.5°F-15.3°C 45% 2.2 mph SW3.5 kmh SW 4.5 mph7.2 kmh 28.98 in981.4 mb 0.00 in0.0 mm 0.00 in0.0 mm 0.00 in0.0 mm
01:57 PM 16.5°F-8.6°C 4.9°F-15.1°C 46% 11.4 mph SW18.3 kmh SW 14.5 mph23.3 kmh 28.98 in981.4 mb 0.00 in0.0 mm 0.00 in0.0 mm 0.00 in0.0 mm
01:53 PM 16.7°F-8.5°C 4.7°F-15.2°C 45% 3.1 mph SW5.0 kmh SW 5.4 mph8.7 kmh 28.98 in981.4 mb 0.00 in0.0 mm 0.00 in0.0 mm 0.00 in0.0 mm
01:48 PM 17.4°F-8.1°C 5.4°F-14.8°C 45% 3.1 mph SW5.0 kmh SW 4.5 mph7.2 kmh 28.97 in981.0 mb 0.00 in0.0 mm 0.00 in0.0 mm 0.00 in0.0 mm
01:47 PM 17.6°F-8.0°C 5.2°F-14.9°C 44% 3.8 mph SW6.1 kmh SW 6.9 mph11.1 kmh 28.97 in981.0 mb 0.00 in0.0 mm 0.00 in0.0 mm 0.00 in0.0 mm
01:42 PM 17.2°F-8.2°C 5.2°F-14.9°C 45% 3.8 mph S6.1 kmh S 7.6 mph12.2 kmh 28.97 in981.0 mb 0.00 in0.0 mm 0.00 in0.0 mm 0.00 in0.0 mm
01:38 PM 17.8°F-7.9°C 5.4°F-14.8°C 44% 7.6 mph SW12.2 kmh SW 11.4 mph18.3 kmh 28.97 in981.0 mb 0.00 in0.0 mm 0.00 in0.0 mm 0.00 in0.0 mm
01:37 PM 17.4°F-8.1°C 5.0°F-15.0°C 44% 5.4 mph SW8.7 kmh SW 9.8 mph15.8 kmh 28.98 in981.4 mb 0.00 in0.0 mm 0.00 in0.0 mm 0.00 in0.0 mm
01:33 PM 18.5°F-7.5°C 6.0°F-14.4°C 44% 3.1 mph 5.0 kmh 7.6 mph12.2 kmh 28.97 in981.0 mb 0.00 in0.0 mm 0.00 in0.0 mm 0.00 in0.0 mm
01:28 PM 18.7°F-7.4°C 6.8°F-14.0°C 46% 2.2 mph S3.5 kmh S 3.1 mph5.0 kmh 28.97 in981.0 mb 0.00 in0.0 mm 0.00 in0.0 mm 0.00 in0.0 mm
01:27 PM 18.5°F-7.5°C 7.0°F-13.9°C 47% 1.6 mph SW2.6 kmh SW 2.2 mph3.5 kmh 28.97 in981.0 mb 0.00 in0.0 mm 0.00 in0.0 mm 0.00 in0.0 mm
01:22 PM 17.4°F-8.1°C 6.6°F-14.1°C 49% 1.6 mph W2.6 kmh W 3.1 mph5.0 kmh 28.97 in981.0 mb 0.00 in0.0 mm 0.00 in0.0 mm 0.00 in0.0 mm
01:18 PM 16.2°F-8.8°C 5.1°F-14.9°C 48% 3.1 mph SW5.0 kmh SW 5.4 mph8.7 kmh 28.97 in981.0 mb 0.00 in0.0 mm 0.00 in0.0 mm 0.00 in0.0 mm
01:17 PM 16.2°F-8.8°C 5.1°F-14.9°C 48% 3.8 mph S6.1 kmh S 6.9 mph11.1 kmh 28.97 in981.0 mb 0.00 in0.0 mm 0.00 in0.0 mm 0.00 in0.0 mm
01:13 PM 16.5°F-8.6°C 5.5°F-14.7°C 48% 3.8 mph SW6.1 kmh SW 6.9 mph11.1 kmh 28.97 in981.0 mb 0.00 in0.0 mm 0.00 in0.0 mm 0.00 in0.0 mm
01:08 PM 16.5°F-8.6°C 5.5°F-14.7°C 48% 6.0 mph WSW9.7 kmh WSW 11.4 mph18.3 kmh 28.98 in981.4 mb 0.00 in0.0 mm 0.00 in0.0 mm 0.00 in0.0 mm
01:07 PM 16.5°F-8.6°C 5.5°F-14.7°C 48% 2.2 mph SW3.5 kmh SW 4.5 mph7.2 kmh 28.98 in981.4 mb 0.00 in0.0 mm 0.00 in0.0 mm 0.00 in0.0 mm
01:02 PM 16.5°F-8.6°C 5.5°F-14.7°C 48% 7.6 mph SW12.2 kmh SW 9.8 mph15.8 kmh 28.97 in981.0 mb 0.00 in0.0 mm 0.00 in0.0 mm 0.00 in0.0 mm
12:58 PM 16.7°F-8.5°C 5.9°F-14.5°C 49% 3.1 mph SW5.0 kmh SW 4.5 mph7.2 kmh 28.98 in981.4 mb 0.00 in0.0 mm 0.00 in0.0 mm 0.00 in0.0 mm
12:57 PM 16.7°F-8.5°C 5.9°F-14.5°C 49% 5.4 mph SW8.7 kmh SW 8.3 mph13.4 kmh 28.98 in981.4 mb 0.00 in0.0 mm 0.00 in0.0 mm 0.00 in0.0 mm
12:53 PM 16.7°F-8.5°C 5.9°F-14.5°C 49% 2.2 mph SW3.5 kmh SW 4.5 mph7.2 kmh 28.98 in981.4 mb 0.00 in0.0 mm 0.00 in0.0 mm 0.00 in0.0 mm
12:48 PM 16.5°F-8.6°C 5.8°F-14.6°C 49% 2.2 mph SW3.5 kmh SW 4.5 mph7.2 kmh 28.99 in981.7 mb 0.00 in0.0 mm 0.00 in0.0 mm 0.00 in0.0 mm
12:47 PM 16.5°F-8.6°C 5.8°F-14.6°C 49% 2.2 mph SW3.5 kmh SW 4.5 mph7.2 kmh 28.99 in981.7 mb 0.00 in0.0 mm 0.00 in0.0 mm 0.00 in0.0 mm
12:42 PM 16.5°F-8.6°C 5.8°F-14.6°C 49% 5.4 mph S8.7 kmh S 13.0 mph20.9 kmh 28.98 in981.4 mb 0.00 in0.0 mm 0.00 in0.0 mm 0.00 in0.0 mm
12:38 PM 16.3°F-8.7°C 5.6°F-14.7°C 49% 3.1 mph SW5.0 kmh SW 4.5 mph7.2 kmh 28.99 in981.7 mb 0.00 in0.0 mm 0.00 in0.0 mm 0.00 in0.0 mm
12:37 PM 16.5°F-8.6°C 5.8°F-14.6°C 49% 3.1 mph 5.0 kmh 4.5 mph7.2 kmh 28.98 in981.4 mb 0.00 in0.0 mm 0.00 in0.0 mm 0.00 in0.0 mm
12:33 PM 16.3°F-8.7°C 5.6°F-14.7°C 49% 4.5 mph SW7.2 kmh SW 6.9 mph11.1 kmh 28.99 in981.7 mb 0.00 in0.0 mm 0.00 in0.0 mm 0.00 in0.0 mm
12:28 PM 16.7°F-8.5°C 5.9°F-14.5°C 49% 3.8 mph S6.1 kmh S 6.0 mph9.7 kmh 28.99 in981.7 mb 0.00 in0.0 mm 0.00 in0.0 mm 0.00 in0.0 mm
12:27 PM 16.7°F-8.5°C 5.9°F-14.5°C 49% 4.5 mph SW7.2 kmh SW 8.3 mph13.4 kmh 28.99 in981.7 mb 0.00 in0.0 mm 0.00 in0.0 mm 0.00 in0.0 mm
12:22 PM 16.7°F-8.5°C 5.9°F-14.5°C 49% 3.8 mph SW6.1 kmh SW 6.9 mph11.1 kmh 29.00 in982.1 mb 0.00 in0.0 mm 0.00 in0.0 mm 0.00 in0.0 mm
12:18 PM 16.7°F-8.5°C 5.9°F-14.5°C 49% 3.1 mph SW5.0 kmh SW 6.0 mph9.7 kmh 28.99 in981.7 mb 0.00 in0.0 mm 0.00 in0.0 mm 0.00 in0.0 mm
12:17 PM 16.5°F-8.6°C 5.8°F-14.6°C 49% 3.1 mph NNW5.0 kmh NNW 5.4 mph8.7 kmh 28.99 in981.7 mb 0.00 in0.0 mm 0.00 in0.0 mm 0.00 in0.0 mm
12:13 PM 16.7°F-8.5°C 5.9°F-14.5°C 49% 6.9 mph SW11.1 kmh SW 9.2 mph14.8 kmh 28.99 in981.7 mb 0.00 in0.0 mm 0.00 in0.0 mm 0.00 in0.0 mm
12:08 PM 16.9°F-8.4°C 6.1°F-14.4°C 49% 3.1 mph S5.0 kmh S 5.4 mph8.7 kmh 29.00 in982.1 mb 0.00 in0.0 mm 0.00 in0.0 mm 0.00 in0.0 mm
12:07 PM 16.9°F-8.4°C 6.1°F-14.4°C 49% 6.9 mph SW11.1 kmh SW 9.8 mph15.8 kmh 29.00 in982.1 mb 0.00 in0.0 mm 0.00 in0.0 mm 0.00 in0.0 mm
12:02 PM 16.7°F-8.5°C 5.9°F-14.5°C 49% 5.4 mph S8.7 kmh S 9.8 mph15.8 kmh 28.99 in981.7 mb 0.00 in0.0 mm 0.00 in0.0 mm 0.00 in0.0 mm
11:58 AM 16.9°F-8.4°C 6.1°F-14.4°C 49% 5.4 mph SW8.7 kmh SW 7.6 mph12.2 kmh 28.99 in981.7 mb 0.00 in0.0 mm 0.00 in0.0 mm 0.00 in0.0 mm
11:57 AM 16.9°F-8.4°C 6.1°F-14.4°C 49% 4.5 mph SW7.2 kmh SW 7.6 mph12.2 kmh 28.99 in981.7 mb 0.00 in0.0 mm 0.00 in0.0 mm 0.00 in0.0 mm
11:53 AM 16.9°F-8.4°C 6.4°F-14.2°C 50% 3.1 mph SW5.0 kmh SW 4.5 mph7.2 kmh 28.98 in981.4 mb 0.00 in0.0 mm 0.00 in0.0 mm 0.00 in0.0 mm
11:48 AM 16.9°F-8.4°C 6.4°F-14.2°C 50% 3.1 mph SW5.0 kmh SW 6.0 mph9.7 kmh 28.99 in981.7 mb 0.00 in0.0 mm 0.00 in0.0 mm 0.00 in0.0 mm
11:47 AM 17.1°F-8.3°C 6.6°F-14.1°C 50% 6.0 mph S9.7 kmh S 10.7 mph17.2 kmh 28.99 in981.7 mb 0.00 in0.0 mm 0.00 in0.0 mm 0.00 in0.0 mm
11:42 AM 17.2°F-8.2°C 6.7°F-14.1°C 50% 5.4 mph SW8.7 kmh SW 10.7 mph17.2 kmh 28.99 in981.7 mb 0.00 in0.0 mm 0.00 in0.0 mm 0.00 in0.0 mm
11:38 AM 17.2°F-8.2°C 6.7°F-14.1°C 50% 3.8 mph NW6.1 kmh NW 6.9 mph11.1 kmh 29.00 in982.1 mb 0.00 in0.0 mm 0.00 in0.0 mm 0.00 in0.0 mm
11:37 AM 17.2°F-8.2°C 7.0°F-13.9°C 51% 4.5 mph SW7.2 kmh SW 6.0 mph9.7 kmh 28.99 in981.7 mb 0.00 in0.0 mm 0.00 in0.0 mm 0.00 in0.0 mm
11:33 AM 17.1°F-8.3°C 6.8°F-14.0°C 51% 4.5 mph S7.2 kmh S 8.3 mph13.4 kmh 28.99 in981.7 mb 0.00 in0.0 mm 0.00 in0.0 mm 0.00 in0.0 mm
11:28 AM 17.1°F-8.3°C 6.8°F-14.0°C 51% 3.8 mph W6.1 kmh W 5.4 mph8.7 kmh 28.99 in981.7 mb 0.00 in0.0 mm 0.00 in0.0 mm 0.00 in0.0 mm
11:27 AM 17.2°F-8.2°C 7.0°F-13.9°C 51% 5.4 mph SW8.7 kmh SW 7.6 mph12.2 kmh 28.99 in981.7 mb 0.00 in0.0 mm 0.00 in0.0 mm 0.00 in0.0 mm
11:22 AM 17.2°F-8.2°C 7.3°F-13.7°C 52% 5.4 mph SW8.7 kmh SW 8.3 mph13.4 kmh 28.98 in981.4 mb 0.00 in0.0 mm 0.00 in0.0 mm 0.00 in0.0 mm
11:18 AM 17.1°F-8.3°C 7.4°F-13.7°C 53% 6.0 mph S9.7 kmh S 11.4 mph18.3 kmh 28.99 in981.7 mb 0.00 in0.0 mm 0.00 in0.0 mm 0.00 in0.0 mm
11:17 AM 17.1°F-8.3°C 7.4°F-13.7°C 53% 2.2 mph SE3.5 kmh SE 4.5 mph7.2 kmh 28.99 in981.7 mb 0.00 in0.0 mm 0.00 in0.0 mm 0.00 in0.0 mm
11:13 AM 17.2°F-8.2°C 7.6°F-13.6°C 53% 3.1 mph SW5.0 kmh SW 4.5 mph7.2 kmh 28.99 in981.7 mb 0.00 in0.0 mm 0.00 in0.0 mm 0.00 in0.0 mm
11:08 AM 17.2°F-8.2°C 7.8°F-13.4°C 54% 7.6 mph SW12.2 kmh SW 10.7 mph17.2 kmh 28.98 in981.4 mb 0.00 in0.0 mm 0.00 in0.0 mm 0.00 in0.0 mm
11:07 AM 17.2°F-8.2°C 7.8°F-13.4°C 54% 3.8 mph SW6.1 kmh SW 5.4 mph8.7 kmh 28.99 in981.7 mb 0.00 in0.0 mm 0.00 in0.0 mm 0.00 in0.0 mm
11:02 AM 17.2°F-8.2°C 7.8°F-13.4°C 54% 2.2 mph W3.5 kmh W 3.1 mph5.0 kmh 28.99 in981.7 mb 0.00 in0.0 mm 0.00 in0.0 mm 0.00 in0.0 mm
10:58 AM 17.2°F-8.2°C 7.8°F-13.4°C 54% 3.1 mph SW5.0 kmh SW 6.9 mph11.1 kmh 28.98 in981.4 mb 0.00 in0.0 mm 0.00 in0.0 mm 0.00 in0.0 mm
10:57 AM 17.2°F-8.2°C 7.8°F-13.4°C 54% 2.2 mph SW3.5 kmh SW 4.5 mph7.2 kmh 28.98 in981.4 mb 0.00 in0.0 mm 0.00 in0.0 mm 0.00 in0.0 mm
10:53 AM 17.2°F-8.2°C 7.8°F-13.4°C 54% 3.8 mph SW6.1 kmh SW 6.9 mph11.1 kmh 28.99 in981.7 mb 0.00 in0.0 mm 0.00 in0.0 mm 0.00 in0.0 mm
10:48 AM 17.4°F-8.1°C 8.0°F-13.3°C 54% 3.8 mph S6.1 kmh S 7.6 mph12.2 kmh 28.98 in981.4 mb 0.00 in0.0 mm 0.00 in0.0 mm 0.00 in0.0 mm
10:47 AM 17.4°F-8.1°C 8.3°F-13.2°C 55% 7.6 mph SW12.2 kmh SW 10.7 mph17.2 kmh 28.98 in981.4 mb 0.00 in0.0 mm 0.00 in0.0 mm 0.00 in0.0 mm
10:42 AM 17.4°F-8.1°C 8.3°F-13.2°C 55% 3.1 mph SW5.0 kmh SW 6.0 mph9.7 kmh 28.98 in981.4 mb 0.00 in0.0 mm 0.00 in0.0 mm 0.00 in0.0 mm
10:38 AM 17.2°F-8.2°C 8.4°F-13.1°C 56% 5.4 mph NNE8.7 kmh NNE 7.6 mph12.2 kmh 28.98 in981.4 mb 0.00 in0.0 mm 0.00 in0.0 mm 0.00 in0.0 mm
10:37 AM 17.2°F-8.2°C 8.1°F-13.3°C 55% 3.8 mph SW6.1 kmh SW 6.9 mph11.1 kmh 28.98 in981.4 mb 0.00 in0.0 mm 0.00 in0.0 mm 0.00 in0.0 mm
10:33 AM 17.4°F-8.1°C 8.5°F-13.1°C 56% 3.8 mph SW6.1 kmh SW 6.9 mph11.1 kmh 28.98 in981.4 mb 0.00 in0.0 mm 0.00 in0.0 mm 0.00 in0.0 mm
10:28 AM 17.4°F-8.1°C 8.8°F-12.9°C 57% 1.6 mph S2.6 kmh S 3.8 mph6.1 kmh 28.98 in981.4 mb 0.00 in0.0 mm 0.00 in0.0 mm 0.00 in0.0 mm
10:27 AM 17.4°F-8.1°C 8.8°F-12.9°C 57% 3.8 mph SSW6.1 kmh SSW 7.6 mph12.2 kmh 28.98 in981.4 mb 0.00 in0.0 mm 0.00 in0.0 mm 0.00 in0.0 mm
10:22 AM 17.2°F-8.2°C 8.9°F-12.8°C 58% 3.8 mph SW6.1 kmh SW 4.5 mph7.2 kmh 28.98 in981.4 mb 0.00 in0.0 mm 0.00 in0.0 mm 0.00 in0.0 mm
10:18 AM 17.2°F-8.2°C 9.2°F-12.7°C 59% 6.9 mph NNW11.1 kmh NNW 9.2 mph14.8 kmh 28.97 in981.0 mb 0.00 in0.0 mm 0.00 in0.0 mm 0.00 in0.0 mm
10:17 AM 17.2°F-8.2°C 9.2°F-12.7°C 59% 3.8 mph S6.1 kmh S 7.6 mph12.2 kmh 28.98 in981.4 mb 0.00 in0.0 mm 0.00 in0.0 mm 0.00 in0.0 mm
10:13 AM 17.2°F-8.2°C 9.4°F-12.6°C 60% 6.0 mph SE9.7 kmh SE 9.2 mph14.8 kmh 28.97 in981.0 mb 0.00 in0.0 mm 0.00 in0.0 mm 0.00 in0.0 mm
10:08 AM 17.2°F-8.2°C 9.6°F-12.4°C 61% 4.5 mph S7.2 kmh S 6.9 mph11.1 kmh 28.98 in981.4 mb 0.00 in0.0 mm 0.00 in0.0 mm 0.00 in0.0 mm
10:07 AM 17.2°F-8.2°C 9.6°F-12.4°C 61% 1.6 mph SW2.6 kmh SW 3.8 mph6.1 kmh 28.98 in981.4 mb 0.00 in0.0 mm 0.00 in0.0 mm 0.00 in0.0 mm
10:02 AM 17.2°F-8.2°C 9.9°F-12.3°C 62% 4.5 mph SW7.2 kmh SW 6.0 mph9.7 kmh 28.98 in981.4 mb 0.00 in0.0 mm 0.00 in0.0 mm 0.00 in0.0 mm
09:58 AM 17.2°F-8.2°C 10.1°F-12.2°C 63% 1.6 mph S2.6 kmh S 3.1 mph5.0 kmh 28.98 in981.4 mb 0.00 in0.0 mm 0.00 in0.0 mm 0.00 in0.0 mm
09:57 AM 17.2°F-8.2°C 9.9°F-12.3°C 62% 4.5 mph NE7.2 kmh NE 5.4 mph8.7 kmh 28.98 in981.4 mb 0.00 in0.0 mm 0.00 in0.0 mm 0.00 in0.0 mm
09:53 AM 17.2°F-8.2°C 10.1°F-12.2°C 63% 6.9 mph WSW11.1 kmh WSW 11.4 mph18.3 kmh 28.97 in981.0 mb 0.00 in0.0 mm 0.00 in0.0 mm 0.00 in0.0 mm
09:48 AM 17.1°F-8.3°C 10.2°F-12.1°C 64% 5.4 mph SW8.7 kmh SW 7.6 mph12.2 kmh 28.97 in981.0 mb 0.00 in0.0 mm 0.00 in0.0 mm 0.00 in0.0 mm
09:47 AM 17.1°F-8.3°C 10.2°F-12.1°C 64% 3.1 mph SW5.0 kmh SW 4.5 mph7.2 kmh 28.97 in981.0 mb 0.00 in0.0 mm 0.00 in0.0 mm 0.00 in0.0 mm
09:42 AM 17.1°F-8.3°C 10.2°F-12.1°C 64% 3.1 mph SW5.0 kmh SW 4.5 mph7.2 kmh 28.97 in981.0 mb 0.00 in0.0 mm 0.00 in0.0 mm 0.00 in0.0 mm
09:38 AM 17.1°F-8.3°C 10.4°F-12.0°C 65% 1.6 mph SW2.6 kmh SW 3.1 mph5.0 kmh 28.97 in981.0 mb 0.00 in0.0 mm 0.00 in0.0 mm 0.00 in0.0 mm
09:37 AM 17.1°F-8.3°C 10.4°F-12.0°C 65% 3.1 mph SW5.0 kmh SW 3.8 mph6.1 kmh 28.97 in981.0 mb 0.00 in0.0 mm 0.00 in0.0 mm 0.00 in0.0 mm
09:33 AM 17.1°F-8.3°C 10.4°F-12.0°C 65% 1.6 mph SW2.6 kmh SW 3.1 mph5.0 kmh 28.98 in981.4 mb 0.00 in0.0 mm 0.00 in0.0 mm 0.00 in0.0 mm
09:28 AM 17.1°F-8.3°C 10.4°F-12.0°C 65% 2.2 mph SW3.5 kmh SW 4.5 mph7.2 kmh 28.97 in981.0 mb 0.00 in0.0 mm 0.00 in0.0 mm 0.00 in0.0 mm
09:27 AM 17.1°F-8.3°C 10.4°F-12.0°C 65% 2.2 mph S3.5 kmh S 3.1 mph5.0 kmh 28.97 in981.0 mb 0.00 in0.0 mm 0.00 in0.0 mm 0.00 in0.0 mm
09:22 AM 17.1°F-8.3°C 10.4°F-12.0°C 65% 6.0 mph SW9.7 kmh SW 9.8 mph15.8 kmh 28.98 in981.4 mb 0.00 in0.0 mm 0.00 in0.0 mm 0.00 in0.0 mm
09:18 AM 17.1°F-8.3°C 10.4°F-12.0°C 65% 2.2 mph NW3.5 kmh NW 3.8 mph6.1 kmh 28.97 in981.0 mb 0.00 in0.0 mm 0.00 in0.0 mm 0.00 in0.0 mm
09:17 AM 17.1°F-8.3°C 10.4°F-12.0°C 65% 3.1 mph SW5.0 kmh SW 3.8 mph6.1 kmh 28.98 in981.4 mb 0.00 in0.0 mm 0.00 in0.0 mm 0.00 in0.0 mm
09:13 AM 17.1°F-8.3°C 10.4°F-12.0°C 65% 0.7 mph SW1.1 kmh SW 2.2 mph3.5 kmh 28.97 in981.0 mb 0.00 in0.0 mm 0.00 in0.0 mm 0.00 in0.0 mm
09:08 AM 17.1°F-8.3°C 10.4°F-12.0°C 65% 2.2 mph SW3.5 kmh SW 3.1 mph5.0 kmh 28.97 in981.0 mb 0.00 in0.0 mm 0.00 in0.0 mm 0.00 in0.0 mm
09:07 AM 17.1°F-8.3°C 10.4°F-12.0°C 65% 3.1 mph S5.0 kmh S 6.9 mph11.1 kmh 28.97 in981.0 mb 0.00 in0.0 mm 0.00 in0.0 mm 0.00 in0.0 mm
09:02 AM 17.1°F-8.3°C 10.4°F-12.0°C 65% 1.6 mph SW2.6 kmh SW 3.1 mph5.0 kmh 28.97 in981.0 mb 0.00 in0.0 mm 0.00 in0.0 mm 0.00 in0.0 mm
08:58 AM 17.1°F-8.3°C 10.2°F-12.1°C 64% 3.1 mph SW5.0 kmh SW 4.5 mph7.2 kmh 28.97 in981.0 mb 0.00 in0.0 mm 0.00 in0.0 mm 0.00 in0.0 mm
08:57 AM 17.1°F-8.3°C 10.4°F-12.0°C 65% 1.6 mph SW2.6 kmh SW 4.5 mph7.2 kmh 28.97 in981.0 mb 0.00 in0.0 mm 0.00 in0.0 mm 0.00 in0.0 mm
08:53 AM 17.1°F-8.3°C 10.2°F-12.1°C 64% 3.1 mph SW5.0 kmh SW 3.8 mph6.1 kmh 28.97 in981.0 mb 0.00 in0.0 mm 0.00 in0.0 mm 0.00 in0.0 mm
08:48 AM 17.1°F-8.3°C 10.2°F-12.1°C 64% 4.5 mph SW7.2 kmh SW 6.9 mph11.1 kmh 28.98 in981.4 mb 0.00 in0.0 mm 0.00 in0.0 mm 0.00 in0.0 mm
08:47 AM 17.1°F-8.3°C 10.2°F-12.1°C 64% 3.1 mph SW5.0 kmh SW 6.0 mph9.7 kmh 28.97 in981.0 mb 0.00 in0.0 mm 0.00 in0.0 mm 0.00 in0.0 mm
08:42 AM 17.1°F-8.3°C 10.0°F-12.2°C 63% 3.1 mph SW5.0 kmh SW 4.5 mph7.2 kmh 28.97 in981.0 mb 0.00 in0.0 mm 0.00 in0.0 mm 0.00 in0.0 mm
08:38 AM 16.9°F-8.4°C 9.8°F-12.3°C 63% 2.2 mph SW3.5 kmh SW 5.4 mph8.7 kmh 28.97 in981.0 mb 0.00 in0.0 mm 0.00 in0.0 mm 0.00 in0.0 mm
08:37 AM 16.9°F-8.4°C 9.8°F-12.3°C 63% 3.1 mph W5.0 kmh W 5.4 mph8.7 kmh 28.97 in981.0 mb 0.00 in0.0 mm 0.00 in0.0 mm 0.00 in0.0 mm
08:33 AM 16.9°F-8.4°C 9.6°F-12.4°C 62% 1.6 mph S2.6 kmh S 3.1 mph5.0 kmh 28.97 in981.0 mb 0.00 in0.0 mm 0.00 in0.0 mm 0.00 in0.0 mm
08:28 AM 16.7°F-8.5°C 9.4°F-12.6°C 62% 2.2 mph SW3.5 kmh SW 4.5 mph7.2 kmh 28.97 in981.0 mb 0.00 in0.0 mm 0.00 in0.0 mm 0.00 in0.0 mm
08:27 AM 16.7°F-8.5°C 9.4°F-12.6°C 62% 1.6 mph S2.6 kmh S 3.1 mph5.0 kmh 28.97 in981.0 mb 0.00 in0.0 mm 0.00 in0.0 mm 0.00 in0.0 mm
08:22 AM 16.7°F-8.5°C 9.1°F-12.7°C 61% Calm Calm 0.7 mph1.1 kmh 28.97 in981.0 mb 0.00 in0.0 mm 0.00 in0.0 mm 0.00 in0.0 mm
08:18 AM 16.9°F-8.4°C 9.3°F-12.6°C 61% 0.7 mph SW1.1 kmh SW 2.2 mph3.5 kmh 28.97 in981.0 mb 0.00 in0.0 mm 0.00 in0.0 mm 0.00 in0.0 mm
08:17 AM 16.7°F-8.5°C 9.1°F-12.7°C 61% 0.7 mph SW1.1 kmh SW 1.6 mph2.6 kmh 28.97 in981.0 mb 0.00 in0.0 mm 0.00 in0.0 mm 0.00 in0.0 mm
08:13 AM 16.9°F-8.4°C 9.3°F-12.6°C 61% 0.7 mph SW1.1 kmh SW 2.2 mph3.5 kmh 28.97 in981.0 mb 0.00 in0.0 mm 0.00 in0.0 mm 0.00 in0.0 mm
08:08 AM 16.9°F-8.4°C 9.3°F-12.6°C 61% Calm Calm 1.6 mph2.6 kmh 28.97 in981.0 mb 0.00 in0.0 mm 0.00 in0.0 mm 0.00 in0.0 mm
08:07 AM 16.9°F-8.4°C 9.3°F-12.6°C 61% 2.2 mph SW3.5 kmh SW 3.8 mph6.1 kmh 28.97 in981.0 mb 0.00 in0.0 mm 0.00 in0.0 mm 0.00 in0.0 mm
08:02 AM 17.1°F-8.3°C 9.5°F-12.5°C 61% Calm Calm 1.6 mph2.6 kmh 28.97 in981.0 mb 0.00 in0.0 mm 0.00 in0.0 mm 0.00 in0.0 mm
07:58 AM 17.1°F-8.3°C 9.2°F-12.7°C 60% 1.6 mph SW2.6 kmh SW 3.8 mph6.1 kmh 28.97 in981.0 mb 0.00 in0.0 mm 0.00 in0.0 mm 0.00 in0.0 mm
07:57 AM 17.1°F-8.3°C 9.2°F-12.7°C 60% 2.2 mph SW3.5 kmh SW 4.5 mph7.2 kmh 28.96 in980.7 mb 0.00 in0.0 mm 0.00 in0.0 mm 0.00 in0.0 mm
07:53 AM 17.1°F-8.3°C 9.2°F-12.7°C 60% 2.2 mph S3.5 kmh S 3.8 mph6.1 kmh 28.97 in981.0 mb 0.00 in0.0 mm 0.00 in0.0 mm 0.00 in0.0 mm
07:48 AM 17.1°F-8.3°C 9.2°F-12.7°C 60% 0.7 mph SW1.1 kmh SW 2.2 mph3.5 kmh 28.97 in981.0 mb 0.00 in0.0 mm 0.00 in0.0 mm 0.00 in0.0 mm
07:47 AM 17.2°F-8.2°C 9.4°F-12.6°C 60% 2.2 mph SW3.5 kmh SW 3.8 mph6.1 kmh 28.96 in980.7 mb 0.00 in0.0 mm 0.00 in0.0 mm 0.00 in0.0 mm
07:42 AM 17.2°F-8.2°C 9.4°F-12.6°C 60% 3.1 mph S5.0 kmh S 4.5 mph7.2 kmh 28.96 in980.7 mb 0.00 in0.0 mm 0.00 in0.0 mm 0.00 in0.0 mm
07:38 AM 17.2°F-8.2°C 9.6°F-12.4°C 61% 3.8 mph SW6.1 kmh SW 5.4 mph8.7 kmh 28.97 in981.0 mb 0.00 in0.0 mm 0.00 in0.0 mm 0.00 in0.0 mm
07:37 AM 17.2°F-8.2°C 9.6°F-12.4°C 61% 3.1 mph S5.0 kmh S 4.5 mph7.2 kmh 28.96 in980.7 mb 0.00 in0.0 mm 0.00 in0.0 mm 0.00 in0.0 mm
07:33 AM 17.2°F-8.2°C 9.6°F-12.4°C 61% 2.2 mph SW3.5 kmh SW 3.1 mph5.0 kmh 28.96 in980.7 mb 0.00 in0.0 mm 0.00 in0.0 mm 0.00 in0.0 mm
07:28 AM 17.2°F-8.2°C 9.6°F-12.4°C 61% 2.2 mph SW3.5 kmh SW 4.5 mph7.2 kmh 28.96 in980.7 mb 0.00 in0.0 mm 0.00 in0.0 mm 0.00 in0.0 mm
07:27 AM 17.2°F-8.2°C 9.6°F-12.4°C 61% 2.2 mph SW3.5 kmh SW 3.1 mph5.0 kmh 28.96 in980.7 mb 0.00 in0.0 mm 0.00 in0.0 mm 0.00 in0.0 mm
07:22 AM 17.2°F-8.2°C 9.6°F-12.4°C 61% 3.1 mph WSW5.0 kmh WSW 4.5 mph7.2 kmh 28.96 in980.7 mb 0.00 in0.0 mm 0.00 in0.0 mm 0.00 in0.0 mm
07:18 AM 17.1°F-8.3°C 9.2°F-12.7°C 60% 3.8 mph SW6.1 kmh SW 4.5 mph7.2 kmh 28.95 in980.4 mb 0.00 in0.0 mm 0.00 in0.0 mm 0.00 in0.0 mm
07:17 AM 17.2°F-8.2°C 9.6°F-12.4°C 61% 3.8 mph SW6.1 kmh SW 6.0 mph9.7 kmh 28.96 in980.7 mb 0.00 in0.0 mm 0.00 in0.0 mm 0.00 in0.0 mm
07:13 AM 17.1°F-8.3°C 9.2°F-12.7°C 60% 0.7 mph SW1.1 kmh SW 1.6 mph2.6 kmh 28.96 in980.7 mb 0.00 in0.0 mm 0.00 in0.0 mm 0.00 in0.0 mm
07:08 AM 17.1°F-8.3°C 9.2°F-12.7°C 60% 1.6 mph SW2.6 kmh SW 3.8 mph6.1 kmh 28.96 in980.7 mb 0.00 in0.0 mm 0.00 in0.0 mm 0.00 in0.0 mm
07:07 AM 17.1°F-8.3°C 9.2°F-12.7°C 60% 1.6 mph SW2.6 kmh SW 3.1 mph5.0 kmh 28.95 in980.4 mb 0.00 in0.0 mm 0.00 in0.0 mm 0.00 in0.0 mm
07:02 AM 17.2°F-8.2°C 9.2°F-12.7°C 59% 0.7 mph SW1.1 kmh SW 1.6 mph2.6 kmh 28.96 in980.7 mb 0.00 in0.0 mm 0.00 in0.0 mm 0.00 in0.0 mm
06:58 AM 17.4°F-8.1°C 9.3°F-12.6°C 59% 3.1 mph S5.0 kmh S 5.4 mph8.7 kmh 28.96 in980.7 mb 0.00 in0.0 mm 0.00 in0.0 mm 0.00 in0.0 mm
06:57 AM 17.4°F-8.1°C 9.3°F-12.6°C 59% 3.1 mph SW5.0 kmh SW 4.5 mph7.2 kmh 28.96 in980.7 mb 0.00 in0.0 mm 0.00 in0.0 mm 0.00 in0.0 mm
06:53 AM 17.4°F-8.1°C 9.3°F-12.6°C 59% 3.8 mph S6.1 kmh S 4.5 mph7.2 kmh 28.96 in980.7 mb 0.00 in0.0 mm 0.00 in0.0 mm 0.00 in0.0 mm
06:48 AM 17.6°F-8.0°C 9.2°F-12.7°C 58% 3.8 mph S6.1 kmh S 5.4 mph8.7 kmh 28.96 in980.7 mb 0.00 in0.0 mm 0.00 in0.0 mm 0.00 in0.0 mm
06:47 AM 17.6°F-8.0°C 9.2°F-12.7°C 58% 3.1 mph SW5.0 kmh SW 5.4 mph8.7 kmh 28.96 in980.7 mb 0.00 in0.0 mm 0.00 in0.0 mm 0.00 in0.0 mm
06:42 AM 17.6°F-8.0°C 9.2°F-12.7°C 58% 2.2 mph S3.5 kmh S 3.8 mph6.1 kmh 28.96 in980.7 mb 0.00 in0.0 mm 0.00 in0.0 mm 0.00 in0.0 mm
06:38 AM 17.8°F-7.9°C 9.4°F-12.6°C 58% 4.5 mph S7.2 kmh S 6.0 mph9.7 kmh 28.95 in980.4 mb 0.00 in0.0 mm 0.00 in0.0 mm 0.00 in0.0 mm
06:37 AM 17.8°F-7.9°C 9.4°F-12.6°C 58% 3.8 mph S6.1 kmh S 5.4 mph8.7 kmh 28.95 in980.4 mb 0.00 in0.0 mm 0.00 in0.0 mm 0.00 in0.0 mm
06:33 AM 18.0°F-7.8°C 9.6°F-12.4°C 58% 2.2 mph S3.5 kmh S 4.5 mph7.2 kmh 28.95 in980.4 mb 0.00 in0.0 mm 0.00 in0.0 mm 0.00 in0.0 mm
06:28 AM 18.1°F-7.7°C 9.7°F-12.4°C 58% 2.2 mph SW3.5 kmh SW 3.1 mph5.0 kmh 28.95 in980.4 mb 0.00 in0.0 mm 0.00 in0.0 mm 0.00 in0.0 mm
06:27 AM 18.1°F-7.7°C 9.7°F-12.4°C 58% 5.4 mph S8.7 kmh S 8.3 mph13.4 kmh 28.95 in980.4 mb 0.00 in0.0 mm 0.00 in0.0 mm 0.00 in0.0 mm
06:22 AM 18.1°F-7.7°C 9.7°F-12.4°C 58% 2.2 mph SW3.5 kmh SW 3.8 mph6.1 kmh 28.95 in980.4 mb 0.00 in0.0 mm 0.00 in0.0 mm 0.00 in0.0 mm
06:18 AM 18.3°F-7.6°C 9.9°F-12.3°C 58% 4.5 mph S7.2 kmh S 6.9 mph11.1 kmh 28.95 in980.4 mb 0.00 in0.0 mm 0.00 in0.0 mm 0.00 in0.0 mm
06:17 AM 18.3°F-7.6°C 9.9°F-12.3°C 58% 5.4 mph SW8.7 kmh SW 11.4 mph18.3 kmh 28.95 in980.4 mb 0.00 in0.0 mm 0.00 in0.0 mm 0.00 in0.0 mm
06:13 AM 18.5°F-7.5°C 10.1°F-12.2°C 58% 4.5 mph SW7.2 kmh SW 6.0 mph9.7 kmh 28.95 in980.4 mb 0.00 in0.0 mm 0.00 in0.0 mm 0.00 in0.0 mm
06:08 AM 18.7°F-7.4°C 10.2°F-12.1°C 58% 3.1 mph S5.0 kmh S 5.4 mph8.7 kmh 28.95 in980.4 mb 0.00 in0.0 mm 0.00 in0.0 mm 0.00 in0.0 mm
06:07 AM 18.7°F-7.4°C 10.5°F-11.9°C 59% 6.0 mph S9.7 kmh S 9.2 mph14.8 kmh 28.95 in980.4 mb 0.00 in0.0 mm 0.00 in0.0 mm 0.00 in0.0 mm
06:02 AM 18.7°F-7.4°C 10.5°F-11.9°C 59% 7.6 mph SW12.2 kmh SW 10.7 mph17.2 kmh 28.96 in980.7 mb 0.00 in0.0 mm 0.00 in0.0 mm 0.00 in0.0 mm
05:58 AM 18.9°F-7.3°C 10.7°F-11.8°C 59% 6.0 mph SSW9.7 kmh SSW 7.6 mph12.2 kmh 28.95 in980.4 mb 0.00 in0.0 mm 0.00 in0.0 mm 0.00 in0.0 mm
05:57 AM 18.9°F-7.3°C 10.7°F-11.8°C 59% 2.2 mph SW3.5 kmh SW 3.1 mph5.0 kmh 28.96 in980.7 mb 0.00 in0.0 mm 0.00 in0.0 mm 0.00 in0.0 mm
05:53 AM 19.0°F-7.2°C 10.8°F-11.8°C 59% 1.6 mph W2.6 kmh W 2.2 mph3.5 kmh 28.95 in980.4 mb 0.00 in0.0 mm 0.00 in0.0 mm 0.00 in0.0 mm
05:48 AM 19.2°F-7.1°C 11.0°F-11.7°C 59% 4.5 mph WSW7.2 kmh WSW 6.0 mph9.7 kmh 28.96 in980.7 mb 0.00 in0.0 mm 0.00 in0.0 mm 0.00 in0.0 mm
05:47 AM 19.2°F-7.1°C 11.0°F-11.7°C 59% 4.5 mph S7.2 kmh S 6.9 mph11.1 kmh 28.95 in980.4 mb 0.00 in0.0 mm 0.00 in0.0 mm 0.00 in0.0 mm
05:42 AM 19.2°F-7.1°C 11.0°F-11.7°C 59% 3.1 mph S5.0 kmh S 6.9 mph11.1 kmh 28.96 in980.7 mb 0.00 in0.0 mm 0.00 in0.0 mm 0.00 in0.0 mm
05:38 AM 19.4°F-7.0°C 12.4°F-10.9°C 64% 2.2 mph S3.5 kmh S 6.9 mph11.1 kmh 28.96 in980.7 mb 0.00 in0.0 mm 0.00 in0.0 mm 0.00 in0.0 mm
05:37 AM 19.2°F-7.1°C 11.0°F-11.7°C 59% 3.8 mph SW6.1 kmh SW 5.4 mph8.7 kmh 28.95 in980.4 mb 0.00 in0.0 mm 0.00 in0.0 mm 0.00 in0.0 mm
05:33 AM 19.4°F-7.0°C 12.4°F-10.9°C 64% 4.5 mph SSW7.2 kmh SSW 6.0 mph9.7 kmh 28.95 in980.4 mb 0.00 in0.0 mm 0.00 in0.0 mm 0.00 in0.0 mm
05:28 AM 19.2°F-7.1°C 11.3°F-11.5°C 60% 3.8 mph SW6.1 kmh SW 6.0 mph9.7 kmh 28.96 in980.7 mb 0.00 in0.0 mm 0.00 in0.0 mm 0.00 in0.0 mm
05:27 AM 19.2°F-7.1°C 11.3°F-11.5°C 60% 3.8 mph S6.1 kmh S 5.4 mph8.7 kmh 28.96 in980.7 mb 0.00 in0.0 mm 0.00 in0.0 mm 0.00 in0.0 mm
05:22 AM 19.4°F-7.0°C 12.4°F-10.9°C 64% 2.2 mph SW3.5 kmh SW 3.1 mph5.0 kmh 28.95 in980.4 mb 0.00 in0.0 mm 0.00 in0.0 mm 0.00 in0.0 mm
05:18 AM 19.6°F-6.9°C 12.6°F-10.8°C 64% 3.1 mph S5.0 kmh S 4.5 mph7.2 kmh 28.95 in980.4 mb 0.00 in0.0 mm 0.00 in0.0 mm 0.00 in0.0 mm
05:17 AM 19.6°F-6.9°C 12.6°F-10.8°C 64% 2.2 mph SW3.5 kmh SW 4.5 mph7.2 kmh 28.95 in980.4 mb 0.00 in0.0 mm 0.00 in0.0 mm 0.00 in0.0 mm
05:13 AM 19.6°F-6.9°C 12.6°F-10.8°C 64% 4.5 mph S7.2 kmh S 5.4 mph8.7 kmh 28.95 in980.4 mb 0.00 in0.0 mm 0.00 in0.0 mm 0.00 in0.0 mm
05:08 AM 19.9°F-6.7°C 12.9°F-10.6°C 64% 3.1 mph S5.0 kmh S 4.5 mph7.2 kmh 28.95 in980.4 mb 0.00 in0.0 mm 0.00 in0.0 mm 0.00 in0.0 mm
05:07 AM 20.1°F-6.6°C 13.1°F-10.5°C 64% 1.6 mph S2.6 kmh S 3.1 mph5.0 kmh 28.95 in980.4 mb 0.00 in0.0 mm 0.00 in0.0 mm 0.00 in0.0 mm
05:02 AM 20.1°F-6.6°C 12.8°F-10.7°C 63% 3.8 mph S6.1 kmh S 4.5 mph7.2 kmh 28.95 in980.4 mb 0.00 in0.0 mm 0.00 in0.0 mm 0.00 in0.0 mm
04:58 AM 20.3°F-6.5°C 12.8°F-10.7°C 62% 4.5 mph SW7.2 kmh SW 5.4 mph8.7 kmh 28.95 in980.4 mb 0.00 in0.0 mm 0.00 in0.0 mm 0.00 in0.0 mm
04:57 AM 20.3°F-6.5°C 13.0°F-10.6°C 63% 3.8 mph S6.1 kmh S 4.5 mph7.2 kmh 28.95 in980.4 mb 0.00 in0.0 mm 0.00 in0.0 mm 0.00 in0.0 mm
04:53 AM 20.7°F-6.3°C 13.1°F-10.5°C 62% 1.6 mph S2.6 kmh S 3.1 mph5.0 kmh 28.95 in980.4 mb 0.00 in0.0 mm 0.00 in0.0 mm 0.00 in0.0 mm
04:48 AM 21.0°F-6.1°C 13.5°F-10.3°C 62% 3.8 mph SW6.1 kmh SW 5.4 mph8.7 kmh 28.95 in980.4 mb 0.00 in0.0 mm 0.00 in0.0 mm 0.00 in0.0 mm
04:47 AM 21.2°F-6.0°C 13.4°F-10.3°C 61% 3.1 mph S5.0 kmh S 5.4 mph8.7 kmh 28.95 in980.4 mb 0.00 in0.0 mm 0.00 in0.0 mm 0.00 in0.0 mm
04:42 AM 21.4°F-5.9°C 13.5°F-10.3°C 61% 4.5 mph S7.2 kmh S 6.0 mph9.7 kmh 28.95 in980.4 mb 0.00 in0.0 mm 0.00 in0.0 mm 0.00 in0.0 mm
04:38 AM 21.9°F-5.6°C 14.3°F-9.8°C 62% 5.4 mph S8.7 kmh S 7.6 mph12.2 kmh 28.94 in980.0 mb 0.00 in0.0 mm 0.00 in0.0 mm 0.00 in0.0 mm
04:37 AM 21.7°F-5.7°C 13.9°F-10.1°C 61% 4.5 mph SW7.2 kmh SW 8.3 mph13.4 kmh 28.95 in980.4 mb 0.00 in0.0 mm 0.00 in0.0 mm 0.00 in0.0 mm
04:33 AM 22.1°F-5.5°C 14.5°F-9.7°C 62% 4.5 mph S7.2 kmh S 9.2 mph14.8 kmh 28.95 in980.4 mb 0.00 in0.0 mm 0.00 in0.0 mm 0.00 in0.0 mm
04:28 AM 22.3°F-5.4°C 14.9°F-9.5°C 63% 7.6 mph S12.2 kmh S 9.2 mph14.8 kmh 28.95 in980.4 mb 0.00 in0.0 mm 0.00 in0.0 mm 0.00 in0.0 mm
04:27 AM 22.3°F-5.4°C 14.9°F-9.5°C 63% 5.4 mph SW8.7 kmh SW 9.2 mph14.8 kmh 28.95 in980.4 mb 0.00 in0.0 mm 0.00 in0.0 mm 0.00 in0.0 mm
04:22 AM 22.5°F-5.3°C 15.1°F-9.4°C 63% 6.0 mph SW9.7 kmh SW 9.2 mph14.8 kmh 28.95 in980.4 mb 0.00 in0.0 mm 0.00 in0.0 mm 0.00 in0.0 mm
04:18 AM 22.8°F-5.1°C 15.6°F-9.1°C 64% 3.1 mph SW5.0 kmh SW 4.5 mph7.2 kmh 28.95 in980.4 mb 0.00 in0.0 mm 0.00 in0.0 mm 0.00 in0.0 mm
04:17 AM 22.8°F-5.1°C 15.4°F-9.2°C 63% 3.1 mph SW5.0 kmh SW 5.4 mph8.7 kmh 28.95 in980.4 mb 0.00 in0.0 mm 0.00 in0.0 mm 0.00 in0.0 mm
04:13 AM 23.0°F-5.0°C 15.6°F-9.1°C 63% 3.8 mph SW6.1 kmh SW 7.6 mph12.2 kmh 28.95 in980.4 mb 0.00 in0.0 mm 0.00 in0.0 mm 0.00 in0.0 mm
04:08 AM 23.0°F-5.0°C 15.8°F-9.0°C 64% 3.1 mph SW5.0 kmh SW 4.5 mph7.2 kmh 28.95 in980.4 mb 0.00 in0.0 mm 0.00 in0.0 mm 0.00 in0.0 mm
04:07 AM 23.0°F-5.0°C 15.8°F-9.0°C 64% 9.2 mph SW14.8 kmh SW 17.4 mph28.0 kmh 28.95 in980.4 mb 0.00 in0.0 mm 0.00 in0.0 mm 0.00 in0.0 mm
04:02 AM 23.0°F-5.0°C 16.1°F-8.8°C 65% 10.7 mph SSW17.2 kmh SSW 15.2 mph24.5 kmh 28.95 in980.4 mb 0.00 in0.0 mm 0.00 in0.0 mm 0.00 in0.0 mm
03:58 AM 22.8°F-5.1°C 16.8°F-8.4°C 69% 4.5 mph SW7.2 kmh SW 6.9 mph11.1 kmh 28.94 in980.0 mb 0.00 in0.0 mm 0.00 in0.0 mm 0.00 in0.0 mm
03:57 AM 23.0°F-5.0°C 16.5°F-8.6°C 67% 9.2 mph S14.8 kmh S 15.9 mph25.6 kmh 28.94 in980.0 mb 0.00 in0.0 mm 0.00 in0.0 mm 0.00 in0.0 mm
03:53 AM 22.8°F-5.1°C 17.1°F-8.3°C 70% 8.3 mph SW13.4 kmh SW 13.0 mph20.9 kmh 28.95 in980.4 mb 0.00 in0.0 mm 0.00 in0.0 mm 0.00 in0.0 mm
03:48 AM 22.6°F-5.2°C 17.1°F-8.3°C 71% 4.5 mph SW7.2 kmh SW 6.9 mph11.1 kmh 28.95 in980.4 mb 0.00 in0.0 mm 0.00 in0.0 mm 0.00 in0.0 mm
03:47 AM 22.6°F-5.2°C 17.1°F-8.3°C 71% 4.5 mph S7.2 kmh S 6.9 mph11.1 kmh 28.94 in980.0 mb 0.00 in0.0 mm 0.00 in0.0 mm 0.00 in0.0 mm
03:42 AM 22.6°F-5.2°C 17.3°F-8.2°C 72% 3.1 mph S5.0 kmh S 5.4 mph8.7 kmh 28.95 in980.4 mb 0.00 in0.0 mm 0.00 in0.0 mm 0.00 in0.0 mm
03:38 AM 22.6°F-5.2°C 17.5°F-8.1°C 73% 6.9 mph S11.1 kmh S 9.2 mph14.8 kmh 28.94 in980.0 mb 0.00 in0.0 mm 0.00 in0.0 mm 0.00 in0.0 mm
03:37 AM 22.6°F-5.2°C 17.5°F-8.1°C 73% 5.4 mph SW8.7 kmh SW 9.8 mph15.8 kmh 28.95 in980.4 mb 0.00 in0.0 mm 0.00 in0.0 mm 0.00 in0.0 mm
03:33 AM 22.6°F-5.2°C 17.5°F-8.1°C 73% 3.1 mph SW5.0 kmh SW 4.5 mph7.2 kmh 28.94 in980.0 mb 0.00 in0.0 mm 0.00 in0.0 mm 0.00 in0.0 mm
03:28 AM 22.5°F-5.3°C 17.4°F-8.1°C 73% 5.4 mph SW8.7 kmh SW 9.8 mph15.8 kmh 28.95 in980.4 mb 0.00 in0.0 mm 0.00 in0.0 mm 0.00 in0.0 mm
03:27 AM 22.5°F-5.3°C 17.4°F-8.1°C 73% 7.6 mph S12.2 kmh S 9.2 mph14.8 kmh 28.94 in980.0 mb 0.00 in0.0 mm 0.00 in0.0 mm 0.00 in0.0 mm
03:22 AM 22.3°F-5.4°C 17.2°F-8.2°C 73% 3.1 mph SW5.0 kmh SW 6.9 mph11.1 kmh 28.94 in980.0 mb 0.00 in0.0 mm 0.00 in0.0 mm 0.00 in0.0 mm
03:18 AM 22.3°F-5.4°C 17.2°F-8.2°C 73% 4.5 mph S7.2 kmh S 5.4 mph8.7 kmh 28.94 in980.0 mb 0.00 in0.0 mm 0.00 in0.0 mm 0.00 in0.0 mm
03:17 AM 22.3°F-5.4°C 17.2°F-8.2°C 73% 3.1 mph S5.0 kmh S 4.5 mph7.2 kmh 28.94 in980.0 mb 0.00 in0.0 mm 0.00 in0.0 mm 0.00 in0.0 mm
03:13 AM 22.3°F-5.4°C 17.2°F-8.2°C 73% 3.8 mph S6.1 kmh S 5.4 mph8.7 kmh 28.95 in980.4 mb 0.00 in0.0 mm 0.00 in0.0 mm 0.00 in0.0 mm
03:08 AM 22.3°F-5.4°C 17.2°F-8.2°C 73% 4.5 mph S7.2 kmh S 6.9 mph11.1 kmh 28.95 in980.4 mb 0.00 in0.0 mm 0.00 in0.0 mm 0.00 in0.0 mm
03:07 AM 22.3°F-5.4°C 17.2°F-8.2°C 73% 4.5 mph SW7.2 kmh SW 6.9 mph11.1 kmh 28.95 in980.4 mb 0.00 in0.0 mm 0.00 in0.0 mm 0.00 in0.0 mm
03:02 AM 22.5°F-5.3°C 17.4°F-8.1°C 73% 5.4 mph SW8.7 kmh SW 8.3 mph13.4 kmh 28.95 in980.4 mb 0.00 in0.0 mm 0.00 in0.0 mm 0.00 in0.0 mm
02:58 AM 22.6°F-5.2°C 17.5°F-8.1°C 73% 6.0 mph SE9.7 kmh SE 9.2 mph14.8 kmh 28.95 in980.4 mb 0.00 in0.0 mm 0.00 in0.0 mm 0.00 in0.0 mm
02:57 AM 22.6°F-5.2°C 17.5°F-8.1°C 73% 4.5 mph S7.2 kmh S 6.9 mph11.1 kmh 28.95 in980.4 mb 0.00 in0.0 mm 0.00 in0.0 mm 0.00 in0.0 mm
02:53 AM 22.8°F-5.1°C 17.9°F-7.8°C 74% 8.3 mph SW13.4 kmh SW 11.4 mph18.3 kmh 28.94 in980.0 mb 0.00 in0.0 mm 0.00 in0.0 mm 0.00 in0.0 mm
02:48 AM 23.0°F-5.0°C 17.9°F-7.8°C 73% 3.8 mph SW6.1 kmh SW 7.6 mph12.2 kmh 28.95 in980.4 mb 0.00 in0.0 mm 0.00 in0.0 mm 0.00 in0.0 mm
02:47 AM 23.0°F-5.0°C 17.9°F-7.8°C 73% 4.5 mph S7.2 kmh S 8.3 mph13.4 kmh 28.94 in980.0 mb 0.00 in0.0 mm 0.00 in0.0 mm 0.00 in0.0 mm
02:42 AM 23.0°F-5.0°C 17.9°F-7.8°C 73% 6.9 mph S11.1 kmh S 8.3 mph13.4 kmh 28.94 in980.0 mb 0.00 in0.0 mm 0.00 in0.0 mm 0.00 in0.0 mm
02:38 AM 23.2°F-4.9°C 18.1°F-7.7°C 73% 6.9 mph S11.1 kmh S 10.7 mph17.2 kmh 28.94 in980.0 mb 0.00 in0.0 mm 0.00 in0.0 mm 0.00 in0.0 mm
02:37 AM 23.2°F-4.9°C 18.1°F-7.7°C 73% 3.8 mph S6.1 kmh S 6.0 mph9.7 kmh 28.94 in980.0 mb 0.00 in0.0 mm 0.00 in0.0 mm 0.00 in0.0 mm
02:33 AM 23.0°F-5.0°C 18.1°F-7.7°C 74% 6.0 mph SW9.7 kmh SW 9.2 mph14.8 kmh 28.94 in980.0 mb 0.00 in0.0 mm 0.00 in0.0 mm 0.00 in0.0 mm
02:28 AM 23.2°F-4.9°C 18.3°F-7.6°C 74% 4.5 mph SW7.2 kmh SW 6.0 mph9.7 kmh 28.94 in980.0 mb 0.00 in0.0 mm 0.00 in0.0 mm 0.00 in0.0 mm
02:27 AM 23.2°F-4.9°C 18.3°F-7.6°C 74% 3.8 mph WSW6.1 kmh WSW 6.0 mph9.7 kmh 28.94 in980.0 mb 0.00 in0.0 mm 0.00 in0.0 mm 0.00 in0.0 mm
02:22 AM 23.2°F-4.9°C 18.3°F-7.6°C 74% 5.4 mph S8.7 kmh S 9.2 mph14.8 kmh 28.94 in980.0 mb 0.00 in0.0 mm 0.00 in0.0 mm 0.00 in0.0 mm
02:18 AM 23.2°F-4.9°C 18.3°F-7.6°C 74% 4.5 mph S7.2 kmh S 6.9 mph11.1 kmh 28.94 in980.0 mb 0.00 in0.0 mm 0.00 in0.0 mm 0.00 in0.0 mm
02:17 AM 23.2°F-4.9°C 18.3°F-7.6°C 74% 3.1 mph SW5.0 kmh SW 7.6 mph12.2 kmh 28.94 in980.0 mb 0.00 in0.0 mm 0.00 in0.0 mm 0.00 in0.0 mm
02:13 AM 23.2°F-4.9°C 18.3°F-7.6°C 74% 3.1 mph S5.0 kmh S 6.0 mph9.7 kmh 28.94 in980.0 mb 0.00 in0.0 mm 0.00 in0.0 mm 0.00 in0.0 mm
02:08 AM 23.2°F-4.9°C 18.3°F-7.6°C 74% 5.4 mph SW8.7 kmh SW 7.6 mph12.2 kmh 28.94 in980.0 mb 0.00 in0.0 mm 0.00 in0.0 mm 0.00 in0.0 mm
02:07 AM 23.2°F-4.9°C 18.3°F-7.6°C 74% 5.4 mph S8.7 kmh S 6.9 mph11.1 kmh 28.94 in980.0 mb 0.00 in0.0 mm 0.00 in0.0 mm 0.00 in0.0 mm
02:02 AM 23.2°F-4.9°C 18.3°F-7.6°C 74% 6.0 mph S9.7 kmh S 8.3 mph13.4 kmh 28.94 in980.0 mb 0.00 in0.0 mm 0.00 in0.0 mm 0.00 in0.0 mm
01:58 AM 23.2°F-4.9°C 18.3°F-7.6°C 74% 2.2 mph S3.5 kmh S 5.4 mph8.7 kmh 28.95 in980.4 mb 0.00 in0.0 mm 0.00 in0.0 mm 0.00 in0.0 mm
01:57 AM 23.2°F-4.9°C 18.3°F-7.6°C 74% 3.8 mph S6.1 kmh S 5.4 mph8.7 kmh 28.94 in980.0 mb 0.00 in0.0 mm 0.00 in0.0 mm 0.00 in0.0 mm
01:53 AM 23.4°F-4.8°C 18.5°F-7.5°C 74% 3.8 mph SW6.1 kmh SW 6.9 mph11.1 kmh 28.95 in980.4 mb 0.00 in0.0 mm 0.00 in0.0 mm 0.00 in0.0 mm
01:48 AM 23.4°F-4.8°C 18.5°F-7.5°C 74% 7.6 mph SE12.2 kmh SE 11.4 mph18.3 kmh 28.95 in980.4 mb 0.00 in0.0 mm 0.00 in0.0 mm 0.00 in0.0 mm
01:47 AM 23.2°F-4.9°C 18.3°F-7.6°C 74% 5.4 mph S8.7 kmh S 8.3 mph13.4 kmh 28.95 in980.4 mb 0.00 in0.0 mm 0.00 in0.0 mm 0.00 in0.0 mm
01:42 AM 23.2°F-4.9°C 18.3°F-7.6°C 74% 5.4 mph S8.7 kmh S 7.6 mph12.2 kmh 28.95 in980.4 mb 0.00 in0.0 mm 0.00 in0.0 mm 0.00 in0.0 mm
01:38 AM 23.2°F-4.9°C 18.3°F-7.6°C 74% 7.6 mph SW12.2 kmh SW 10.7 mph17.2 kmh 28.95 in980.4 mb 0.00 in0.0 mm 0.00 in0.0 mm 0.00 in0.0 mm
01:37 AM 23.2°F-4.9°C 18.3°F-7.6°C 74% 7.6 mph S12.2 kmh S 13.0 mph20.9 kmh 28.95 in980.4 mb 0.00 in0.0 mm 0.00 in0.0 mm 0.00 in0.0 mm
01:33 AM 23.4°F-4.8°C 18.5°F-7.5°C 74% 6.0 mph NNE9.7 kmh NNE 9.8 mph15.8 kmh 28.95 in980.4 mb 0.00 in0.0 mm 0.00 in0.0 mm 0.00 in0.0 mm
01:28 AM 23.4°F-4.8°C 18.5°F-7.5°C 74% 5.4 mph SE8.7 kmh SE 6.9 mph11.1 kmh 28.94 in980.0 mb 0.00 in0.0 mm 0.00 in0.0 mm 0.00 in0.0 mm
01:27 AM 23.4°F-4.8°C 18.5°F-7.5°C 74% 10.7 mph SSW17.2 kmh SSW 14.5 mph23.3 kmh 28.95 in980.4 mb 0.00 in0.0 mm 0.00 in0.0 mm 0.00 in0.0 mm
01:22 AM 23.4°F-4.8°C 18.5°F-7.5°C 74% 6.0 mph SSW9.7 kmh SSW 11.4 mph18.3 kmh 28.95 in980.4 mb 0.00 in0.0 mm 0.00 in0.0 mm 0.00 in0.0 mm
01:18 AM 23.2°F-4.9°C 18.5°F-7.5°C 75% 6.0 mph SE9.7 kmh SE 12.1 mph19.5 kmh 28.94 in980.0 mb 0.00 in0.0 mm 0.00 in0.0 mm 0.00 in0.0 mm
01:17 AM 23.2°F-4.9°C 18.5°F-7.5°C 75% 9.2 mph S14.8 kmh S 15.9 mph25.6 kmh 28.95 in980.4 mb 0.00 in0.0 mm 0.00 in0.0 mm 0.00 in0.0 mm
01:13 AM 23.2°F-4.9°C 18.5°F-7.5°C 75% 4.5 mph S7.2 kmh S 7.6 mph12.2 kmh 28.95 in980.4 mb 0.00 in0.0 mm 0.00 in0.0 mm 0.00 in0.0 mm
01:08 AM 23.0°F-5.0°C 18.3°F-7.6°C 75% 7.6 mph S12.2 kmh S 12.1 mph19.5 kmh 28.95 in980.4 mb 0.00 in0.0 mm 0.00 in0.0 mm 0.00 in0.0 mm
01:07 AM 23.0°F-5.0°C 18.3°F-7.6°C 75% 6.0 mph S9.7 kmh S 9.8 mph15.8 kmh 28.95 in980.4 mb 0.00 in0.0 mm 0.00 in0.0 mm 0.00 in0.0 mm
01:02 AM 23.0°F-5.0°C 18.3°F-7.6°C 75% 8.3 mph N13.4 kmh N 10.7 mph17.2 kmh 28.95 in980.4 mb 0.00 in0.0 mm 0.00 in0.0 mm 0.00 in0.0 mm
12:58 AM 23.0°F-5.0°C 18.1°F-7.7°C 74% 8.3 mph SW13.4 kmh SW 13.0 mph20.9 kmh 28.95 in980.4 mb 0.00 in0.0 mm 0.00 in0.0 mm 0.00 in0.0 mm
12:57 AM 23.0°F-5.0°C 18.1°F-7.7°C 74% 3.1 mph S5.0 kmh S 6.0 mph9.7 kmh 28.95 in980.4 mb 0.00 in0.0 mm 0.00 in0.0 mm 0.00 in0.0 mm
12:53 AM 23.0°F-5.0°C 18.1°F-7.7°C 74% 5.4 mph S8.7 kmh S 7.6 mph12.2 kmh 28.95 in980.4 mb 0.00 in0.0 mm 0.00 in0.0 mm 0.00 in0.0 mm
12:48 AM 23.0°F-5.0°C 18.1°F-7.7°C 74% 4.5 mph SW7.2 kmh SW 6.0 mph9.7 kmh 28.94 in980.0 mb 0.00 in0.0 mm 0.00 in0.0 mm 0.00 in0.0 mm
12:47 AM 23.0°F-5.0°C 18.1°F-7.7°C 74% 4.5 mph SE7.2 kmh SE 6.0 mph9.7 kmh 28.95 in980.4 mb 0.00 in0.0 mm 0.00 in0.0 mm 0.00 in0.0 mm
12:42 AM 23.2°F-4.9°C 18.3°F-7.6°C 74% 3.1 mph SW5.0 kmh SW 6.0 mph9.7 kmh 28.95 in980.4 mb 0.00 in0.0 mm 0.00 in0.0 mm 0.00 in0.0 mm
12:38 AM 23.2°F-4.9°C 18.3°F-7.6°C 74% 4.5 mph S7.2 kmh S 8.3 mph13.4 kmh 28.95 in980.4 mb 0.00 in0.0 mm 0.00 in0.0 mm 0.00 in0.0 mm
12:37 AM 23.2°F-4.9°C 18.3°F-7.6°C 74% 3.8 mph SW6.1 kmh SW 6.0 mph9.7 kmh 28.95 in980.4 mb 0.00 in0.0 mm 0.00 in0.0 mm 0.00 in0.0 mm
12:33 AM 23.2°F-4.9°C 18.3°F-7.6°C 74% 6.0 mph SW9.7 kmh SW 7.6 mph12.2 kmh 28.95 in980.4 mb 0.00 in0.0 mm 0.00 in0.0 mm 0.00 in0.0 mm
12:28 AM 23.2°F-4.9°C 18.3°F-7.6°C 74% 5.4 mph SW8.7 kmh SW 7.6 mph12.2 kmh 28.95 in980.4 mb 0.00 in0.0 mm 0.00 in0.0 mm 0.00 in0.0 mm
12:27 AM 23.2°F-4.9°C 18.3°F-7.6°C 74% 3.1 mph S5.0 kmh S 5.4 mph8.7 kmh 28.95 in980.4 mb 0.00 in0.0 mm 0.00 in0.0 mm 0.00 in0.0 mm
12:22 AM 23.2°F-4.9°C 18.3°F-7.6°C 74% 5.4 mph SW8.7 kmh SW 9.2 mph14.8 kmh 28.95 in980.4 mb 0.00 in0.0 mm 0.00 in0.0 mm 0.00 in0.0 mm
12:18 AM 23.2°F-4.9°C 18.3°F-7.6°C 74% 5.4 mph E8.7 kmh E 7.6 mph12.2 kmh 28.95 in980.4 mb 0.00 in0.0 mm 0.00 in0.0 mm 0.00 in0.0 mm
12:17 AM 23.2°F-4.9°C 18.3°F-7.6°C 74% 6.0 mph S9.7 kmh S 9.2 mph14.8 kmh 28.95 in980.4 mb 0.00 in0.0 mm 0.00 in0.0 mm 0.00 in0.0 mm
12:13 AM 23.2°F-4.9°C 18.3°F-7.6°C 74% 4.5 mph SW7.2 kmh SW 7.6 mph12.2 kmh 28.95 in980.4 mb 0.00 in0.0 mm 0.00 in0.0 mm 0.00 in0.0 mm
12:08 AM 23.2°F-4.9°C 18.3°F-7.6°C 74% 9.2 mph S14.8 kmh S 13.0 mph20.9 kmh 28.95 in980.4 mb 0.00 in0.0 mm 0.00 in0.0 mm 0.00 in0.0 mm
12:07 AM 23.2°F-4.9°C 18.3°F-7.6°C 74% 4.5 mph S7.2 kmh S 6.0 mph9.7 kmh 28.95 in980.4 mb 0.00 in0.0 mm 0.00 in0.0 mm 0.00 in0.0 mm
12:02 AM 23.2°F-4.9°C 18.3°F-7.6°C 74% 4.5 mph SSW7.2 kmh SSW 7.6 mph12.2 kmh 28.95 in980.4 mb 0.00 in0.0 mm 0.00 in0.0 mm 0.00 in0.0 mm